< Typhoon 200108 2001 Season Typhoon 200110 >
Typhoon 200109 (MAN-YI)
General InformationTrack Information on Google MapsDetailed Wind InformationList of All Images || NewsDisaster Info.ResourceGoogle EarthGE AnimationAtom FeedGeoJSON
Detalied Best Track (Time Zone = UTC)
Year Month Day Hour Lat. Long. Pressure (hPa) Wind (kt) Class Image Chart
2001 8 1 18 10.4 152.8 1004 0 2 Image Chart
2001 8 2 00 11.3 152.0 1004 0 2 Image Chart
2001 8 2 06 11.8 150.9 1000 35 3 Image Chart
2001 8 2 12 12.3 150.4 996 40 3 Image Chart
2001 8 2 18 13.6 149.6 996 40 3 Image Chart
2001 8 3 00 14.8 148.8 994 45 3 Image Chart
2001 8 3 06 16.1 147.7 990 50 4 Image Chart
2001 8 3 12 17.4 146.8 985 50 4 Image Chart
2001 8 3 18 18.4 145.8 980 55 4 Image Chart
2001 8 4 00 19.8 145.2 975 60 4 Image Chart
2001 8 4 06 21.2 144.6 965 70 5 Image Chart
2001 8 4 12 22.4 144.1 960 75 5 Image Chart
2001 8 4 18 23.6 143.7 955 80 5 Image Chart
2001 8 5 00 24.7 143.6 955 80 5 Image Chart
2001 8 5 03 25.0 143.5 955 80 5 Image Chart
2001 8 5 06 25.3 143.6 955 80 5 Image Chart
2001 8 5 09 25.4 143.7 955 80 5 Image Chart
2001 8 5 12 25.5 143.9 955 80 5 Image Chart
2001 8 5 15 25.7 144.1 955 80 5 Image Chart
2001 8 5 18 25.9 144.2 955 80 5 Image Chart
2001 8 5 21 25.9 144.5 955 75 5 Image Chart
2001 8 6 00 26.1 144.6 955 75 5 Image Chart
2001 8 6 06 26.5 144.9 955 75 5 Image Chart
2001 8 6 12 26.8 145.4 955 75 5 Image Chart
2001 8 6 18 27.3 145.9 955 75 5 Image Chart
2001 8 7 00 28.0 146.6 960 70 5 Image Chart
2001 8 7 06 29.0 147.4 960 70 5 Image Chart
2001 8 7 12 30.0 148.4 965 65 5 Image Chart
2001 8 7 18 31.2 149.3 965 65 5 Image Chart
2001 8 8 00 32.6 150.1 970 60 4 Image Chart
2001 8 8 06 34.2 150.7 975 55 4 Image Chart
2001 8 8 12 36.1 151.2 980 55 4 Image Chart
2001 8 8 18 37.6 151.0 985 50 4 Image Chart
2001 8 9 00 38.8 151.4 990 45 3 Image Chart
2001 8 9 06 40.4 151.6 992 45 3 Image Chart
2001 8 9 12 42.0 153.0 996 40 3 Image Chart
2001 8 9 18 43.7 154.3 1002 0 6 Image Chart
2001 8 10 00 45.2 155.8 1004 0 6 Image Chart
2001 8 10 06 46.4 157.5 1008 0 6 Image Chart
2001 8 10 12 47.7 158.6 1008 0 6 Image Chart
2001 8 10 18 49.1 160.6 1010 0 6 Image Chart
2001 8 11 00 49.3 162.9 1010 0 6 Image Chart
Japan Meteorological Agency Best Track Data | Correction Date : 2002-01-24
< Typhoon 200108 2001 Season Typhoon 200110 >

Help